Accueil
METAR-TAF:

METAR-TAF

Aéroports :

Cranfield, Angleterre

latitude: 52-04N, longitude: 000-37W, altitude: 111 m

Observation

Le bulletin a été fait il y a 12 heures et 8 minutes, à 14:20 UTC
Vent 11 kt de est/sud-est
Température
Pression 999 hPa
Visibilité 10 km ou plus
Quelques nuages à une hauteur de 4000 ft

METAR: EGTC 301420Z 12011KT 9999 FEW040 14 06 Q0999

Heure: 03:28 (02:28 UTC)

Prévision

Le bulletin a été fait il y a 12 heures et 28 minutes, à 14:00 UTC
Prévision valable du 30 à 15 UTC au 30 à 17 UTC
Vent 15 kt de est
Visibilité 10 km ou plus
pas de nuages en-dessous de 1500 mètres et pas de cumulonimbus.
Evoluant progressivement
du 30 à 15 UTC au 30 à 17 UTC
Vent 9 kt de sud/sud-est
Nuages fragmentés à une hauteur de 4800 ft

TAF: EGTC 301400Z 3015/3017 10015KT CAVOK BECMG 3015/3017 16009KT BKN048

Observations et prévisions météorologiques de plus de 4000 aéroports (messages METAR et TAF).

Les stations disponibles sont représentées par des disques jaunes et rouges sur la carte.

Passer la souris dessus pour voir le nom de la station.

Cliquer dessus pour voir les observations et prévisions météorologiques.

Pour changer de carte: cliquez sur les boutons verts avec une croix noire pour zoomer, sur le bouton vert avec un tiret pour effectuer un zoom arrière, ou sur les flèches vertes pour les cartes adjacentes.


METAR-TAF: